createdAt,value
2019-05-11T00:00:50.499Z,6.53
2019-05-11T00:03:19.864Z,6.53
2019-05-11T00:05:48.732Z,6.48
2019-05-11T00:08:17.745Z,6.45
2019-05-11T00:10:46.732Z,6.42
2019-05-11T00:13:16.041Z,6.57
2019-05-11T00:15:45.036Z,6.57
2019-05-11T00:18:14.045Z,6.53
2019-05-11T00:20:43.337Z,6.52
2019-05-11T00:23:12.623Z,6.40
2019-05-11T00:25:41.547Z,6.33
2019-05-11T00:28:10.843Z,6.15
2019-05-11T00:30:39.552Z,6.15
2019-05-11T00:33:08.509Z,6.04
2019-05-11T00:35:37.547Z,6.00
2019-05-11T00:38:06.179Z,6.06
2019-05-11T00:40:34.883Z,6.06
2019-05-11T00:43:03.682Z,6.02
2019-05-11T00:45:32.318Z,6.02
2019-05-11T00:48:01.540Z,5.99
2019-05-11T00:50:38.941Z,5.99
2019-05-11T00:53:00.648Z,5.87
2019-05-11T00:55:29.315Z,5.87
2019-05-11T00:57:58.219Z,5.84
2019-05-11T01:00:27.528Z,5.82
2019-05-11T01:02:56.773Z,5.87
2019-05-11T01:05:25.443Z,5.87
2019-05-11T01:07:54.523Z,5.89
2019-05-11T01:10:33.798Z,5.89
2019-05-11T01:12:53.559Z,5.87
2019-05-11T01:15:22.591Z,5.74
2019-05-11T01:17:51.538Z,5.74
2019-05-11T01:20:20.602Z,5.66
2019-05-11T01:22:49.255Z,5.66
2019-05-11T01:25:17.906Z,5.66
2019-05-11T01:27:46.866Z,5.63
2019-05-11T01:30:15.712Z,5.54
2019-05-11T01:32:44.347Z,5.52
2019-05-11T01:35:13.049Z,5.46
2019-05-11T01:37:42.354Z,5.50
2019-05-11T01:40:11.275Z,5.68
2019-05-11T01:42:40.525Z,5.63
2019-05-11T01:45:09.444Z,5.63
2019-05-11T01:47:38.452Z,5.67
2019-05-11T01:50:07.816Z,5.61
2019-05-11T01:52:36.815Z,5.49
2019-05-11T01:55:05.724Z,5.42
2019-05-11T01:57:34.623Z,5.39
2019-05-11T02:00:04.093Z,5.35
2019-05-11T02:02:35.194Z,5.35
2019-05-11T02:05:22.352Z,5.34
2019-05-11T02:07:51.352Z,5.26
2019-05-11T02:10:20.075Z,5.14
2019-05-11T02:12:48.726Z,5.12
2019-05-11T02:15:17.720Z,5.22
2019-05-11T02:17:46.355Z,5.17
2019-05-11T02:20:15.807Z,5.09
2019-05-11T02:22:44.441Z,5.12
2019-05-11T02:25:14.512Z,5.12
2019-05-11T02:27:43.529Z,5.13
2019-05-11T02:30:12.512Z,5.10
2019-05-11T02:32:41.495Z,5.16
2019-05-11T02:35:10.238Z,5.23
2019-05-11T02:37:39.178Z,5.24
2019-05-11T02:40:07.998Z,5.33
2019-05-11T02:42:37.102Z,5.34
2019-05-11T02:45:06.825Z,5.37
2019-05-11T02:47:35.775Z,5.35
2019-05-11T02:50:05.174Z,5.26
2019-05-11T02:52:34.771Z,5.21
2019-05-11T02:55:03.600Z,5.21
2019-05-11T02:57:32.555Z,5.10
2019-05-11T03:00:01.969Z,5.15
2019-05-11T03:02:30.578Z,5.18
2019-05-11T03:05:00.463Z,5.11
2019-05-11T03:07:29.668Z,4.99
2019-05-11T03:09:58.852Z,4.99
2019-05-11T03:12:27.857Z,4.93
2019-05-11T03:14:56.855Z,4.93
2019-05-11T03:17:30.040Z,4.94
2019-05-11T03:19:59.236Z,4.85
2019-05-11T03:22:28.549Z,4.83
2019-05-11T03:24:57.427Z,4.85
2019-05-11T03:27:26.339Z,4.85
2019-05-11T03:30:00.021Z,4.79
2019-05-11T03:32:25.679Z,4.89
2019-05-11T03:34:54.648Z,4.94
2019-05-11T03:37:23.302Z,4.93
2019-05-11T03:39:51.918Z,4.91
2019-05-11T03:42:21.198Z,4.84
2019-05-11T03:44:49.824Z,4.86
2019-05-11T03:47:18.466Z,4.86
2019-05-11T03:49:47.976Z,4.94
2019-05-11T03:52:16.673Z,4.99
2019-05-11T03:54:45.557Z,5.02
2019-05-11T03:57:14.558Z,4.99
2019-05-11T03:59:43.521Z,4.96
2019-05-11T04:02:12.435Z,4.94
2019-05-11T04:04:41.455Z,4.96
2019-05-11T04:07:10.425Z,5.00
2019-05-11T04:09:39.130Z,5.03
2019-05-11T04:12:08.107Z,4.94
2019-05-11T04:14:37.297Z,4.93
2019-05-11T04:17:06.603Z,4.83
2019-05-11T04:19:35.246Z,4.83
2019-05-11T04:22:04.282Z,4.84
2019-05-11T04:24:32.946Z,4.82
2019-05-11T04:27:02.481Z,4.84
2019-05-11T04:29:31.454Z,5.12
2019-05-11T04:32:00.088Z,5.12
2019-05-11T04:34:29.044Z,5.14
2019-05-11T04:36:58.241Z,5.13
2019-05-11T04:39:27.443Z,5.14
2019-05-11T04:41:56.059Z,5.20
2019-05-11T04:44:24.710Z,5.21
2019-05-11T04:46:54.008Z,5.22
2019-05-11T04:49:22.651Z,5.31
2019-05-11T04:51:51.589Z,5.47
2019-05-11T04:54:20.237Z,5.70
2019-05-11T04:56:49.186Z,5.70
2019-05-11T04:59:18.770Z,5.84
2019-05-11T05:01:48.074Z,5.96
2019-05-11T05:04:16.806Z,5.92
2019-05-11T05:06:58.946Z,5.91
2019-05-11T05:09:16.149Z,5.96
2019-05-11T05:11:44.798Z,5.96
2019-05-11T05:14:13.774Z,5.92
2019-05-11T05:16:42.426Z,5.95
2019-05-11T05:19:12.038Z,5.95
2019-05-11T05:21:40.688Z,6.09
2019-05-11T05:24:09.320Z,6.15
2019-05-11T05:26:37.977Z,6.19
2019-05-11T05:29:06.927Z,6.19
2019-05-11T05:31:37.021Z,6.23
2019-05-11T05:34:05.664Z,6.23
2019-05-11T05:36:34.601Z,6.19
2019-05-11T05:39:03.742Z,6.18
2019-05-11T05:41:32.996Z,6.18
2019-05-11T05:44:01.891Z,6.25
2019-05-11T05:46:31.073Z,6.19
2019-05-11T05:49:00.077Z,6.19
2019-05-11T05:51:29.052Z,6.22
2019-05-11T05:53:58.581Z,6.20
2019-05-11T05:56:27.570Z,6.20
2019-05-11T05:58:56.246Z,6.20
2019-05-11T06:01:25.470Z,6.27
2019-05-11T06:03:54.762Z,6.36
2019-05-11T06:06:23.749Z,6.96
2019-05-11T06:08:52.957Z,6.96
2019-05-11T06:11:21.602Z,7.02
2019-05-11T06:13:50.849Z,7.17
2019-05-11T06:16:19.599Z,7.37
2019-05-11T06:18:48.529Z,7.58
2019-05-11T06:21:17.167Z,7.68
2019-05-11T06:23:45.822Z,7.75
2019-05-11T06:26:15.106Z,7.75
2019-05-11T06:28:44.389Z,7.68
2019-05-11T06:31:13.283Z,7.80
2019-05-11T06:33:42.172Z,7.84
2019-05-11T06:36:10.837Z,7.85
2019-05-11T06:38:39.462Z,7.95
2019-05-11T06:41:08.440Z,8.07
2019-05-11T06:43:37.471Z,8.16
2019-05-11T06:46:06.733Z,8.28
2019-05-11T06:48:35.619Z,8.37
2019-05-11T06:51:04.283Z,8.51
2019-05-11T06:53:32.918Z,8.41
2019-05-11T06:56:01.558Z,8.34
2019-05-11T06:58:30.189Z,8.45
2019-05-11T07:00:59.155Z,8.49
2019-05-11T07:03:28.052Z,8.53
2019-05-11T07:05:57.260Z,8.60
2019-05-11T07:08:25.865Z,8.79
2019-05-11T07:10:55.136Z,8.80
2019-05-11T07:13:24.152Z,8.98
2019-05-11T07:15:53.427Z,8.84
2019-05-11T07:18:22.074Z,8.76
2019-05-11T07:20:51.163Z,8.78
2019-05-11T07:23:20.301Z,8.78
2019-05-11T07:25:48.901Z,8.94
2019-05-11T07:28:17.632Z,9.20
2019-05-11T07:30:46.278Z,9.06
2019-05-11T07:33:14.904Z,9.06
2019-05-11T07:35:43.861Z,9.32
2019-05-11T07:38:12.468Z,9.66
2019-05-11T07:40:41.427Z,9.50
2019-05-11T07:43:10.868Z,9.58
2019-05-11T07:45:39.920Z,9.74
2019-05-11T07:48:09.113Z,9.70
2019-05-11T07:50:38.851Z,9.80
2019-05-11T07:53:08.378Z,9.95
2019-05-11T07:55:38.487Z,10.10
2019-05-11T07:58:08.086Z,9.92
2019-05-11T08:00:39.805Z,9.85
2019-05-11T08:03:09.035Z,10.26
2019-05-11T08:05:38.732Z,9.95
2019-05-11T08:08:08.680Z,10.21
2019-05-11T08:10:39.019Z,10.24
2019-05-11T08:13:09.183Z,10.18
2019-05-11T08:15:38.442Z,10.32
2019-05-11T08:18:08.543Z,10.49
2019-05-11T08:20:38.509Z,10.67
2019-05-11T08:23:09.159Z,10.70
2019-05-11T08:25:38.460Z,10.59
2019-05-11T08:28:14.379Z,10.41
2019-05-11T08:30:43.306Z,10.15
2019-05-11T08:33:12.609Z,10.44
2019-05-11T08:35:41.320Z,10.29
2019-05-11T08:38:09.956Z,10.43
2019-05-11T08:40:38.677Z,10.36
2019-05-11T08:43:08.789Z,10.89
2019-05-11T08:45:39.281Z,10.91
2019-05-11T08:48:08.610Z,11.11
2019-05-11T08:50:38.256Z,11.31
2019-05-11T08:53:08.623Z,11.22
2019-05-11T08:55:38.312Z,11.24
2019-05-11T08:58:07.973Z,11.49
2019-05-11T09:00:38.928Z,11.73
2019-05-11T09:03:08.705Z,11.50
2019-05-11T09:05:38.409Z,11.22
2019-05-11T09:08:08.309Z,11.40
2019-05-11T09:10:39.705Z,11.49
2019-05-11T09:13:08.108Z,11.36
2019-05-11T09:15:40.452Z,11.28
2019-05-11T09:18:08.517Z,11.39
2019-05-11T09:20:38.000Z,11.26
2019-05-11T09:23:08.243Z,11.23
2019-05-11T09:25:38.463Z,11.37
2019-05-11T09:28:08.608Z,11.20
2019-05-11T09:30:37.892Z,11.31
2019-05-11T09:33:08.580Z,11.59
2019-05-11T09:35:47.553Z,11.59
2019-05-11T09:38:08.410Z,11.57
2019-05-11T09:40:38.603Z,11.40
2019-05-11T09:43:08.644Z,11.81
2019-05-11T09:45:48.125Z,11.82
2019-05-11T09:48:08.739Z,11.69
2019-05-11T09:50:38.817Z,11.95
2019-05-11T09:53:08.525Z,12.44
2019-05-11T09:55:39.002Z,12.70
2019-05-11T09:58:08.508Z,12.48
2019-05-11T10:00:38.809Z,12.40
2019-05-11T10:03:08.316Z,11.77
2019-05-11T10:05:38.420Z,12.01
2019-05-11T10:08:07.933Z,12.29
2019-05-11T10:10:38.379Z,12.15
2019-05-11T10:13:08.107Z,12.62
2019-05-11T10:15:38.504Z,12.62
2019-05-11T10:18:08.190Z,13.06
2019-05-11T10:20:39.018Z,12.82
2019-05-11T10:23:08.372Z,12.95
2019-05-11T10:25:39.080Z,12.35
2019-05-11T10:28:08.695Z,12.19
2019-05-11T10:30:38.591Z,13.14
2019-05-11T10:33:08.402Z,14.12
2019-05-11T10:35:37.856Z,13.44
2019-05-11T10:38:09.002Z,13.51
2019-05-11T10:40:38.772Z,13.99
2019-05-11T10:43:08.048Z,13.38
2019-05-11T10:45:37.910Z,13.13
2019-05-11T10:48:08.739Z,12.97
2019-05-11T10:50:38.073Z,13.22
2019-05-11T10:53:08.003Z,13.77
2019-05-11T10:55:38.617Z,13.89
2019-05-11T10:58:08.625Z,14.75
2019-05-11T11:00:38.830Z,13.82
2019-05-11T11:03:08.559Z,13.72
2019-05-11T11:05:38.458Z,14.13
2019-05-11T11:08:08.422Z,14.03
2019-05-11T11:10:37.886Z,13.05
2019-05-11T11:13:08.433Z,14.20
2019-05-11T11:15:38.222Z,14.41
2019-05-11T11:18:08.592Z,14.39
2019-05-11T11:20:38.473Z,13.87
2019-05-11T11:23:08.784Z,13.78
2019-05-11T11:25:37.874Z,14.03
2019-05-11T11:28:08.449Z,14.44
2019-05-11T11:30:37.954Z,13.99
2019-05-11T11:33:07.962Z,14.45
2019-05-11T11:35:38.548Z,14.47
2019-05-11T11:38:08.698Z,14.67
2019-05-11T11:40:38.738Z,14.29
2019-05-11T11:43:08.695Z,15.07
2019-05-11T11:45:38.087Z,14.55
2019-05-11T11:48:08.639Z,14.89
2019-05-11T11:50:37.915Z,14.79
2019-05-11T11:53:08.368Z,14.69
2019-05-11T11:55:38.860Z,14.68
2019-05-11T11:58:08.420Z,15.11
2019-05-11T12:00:39.137Z,14.71
2019-05-11T12:03:08.196Z,15.39
2019-05-11T12:05:38.652Z,15.48
2019-05-11T12:08:08.421Z,15.52
2019-05-11T12:10:38.033Z,14.98
2019-05-11T12:13:08.701Z,14.85
2019-05-11T12:15:38.748Z,15.25
2019-05-11T12:18:08.347Z,15.77
2019-05-11T12:20:39.006Z,14.92
2019-05-11T12:23:08.766Z,14.05
2019-05-11T12:25:40.355Z,14.26
2019-05-11T12:28:08.218Z,14.69
2019-05-11T12:30:37.689Z,14.30
2019-05-11T12:33:08.276Z,15.50
2019-05-11T12:35:37.759Z,14.89
2019-05-11T12:38:07.848Z,15.10
2019-05-11T12:40:38.936Z,15.34
2019-05-11T12:43:08.326Z,15.39
2019-05-11T12:45:37.713Z,15.72
2019-05-11T12:48:08.921Z,14.89
2019-05-11T12:50:37.871Z,14.81
2019-05-11T12:53:08.008Z,14.78
2019-05-11T12:55:37.953Z,15.31
2019-05-11T12:58:08.553Z,14.80
2019-05-11T13:00:39.167Z,15.44
2019-05-11T13:03:08.375Z,15.09
2019-05-11T13:05:37.882Z,15.26
2019-05-11T13:08:07.979Z,15.47
2019-05-11T13:10:37.613Z,15.42
2019-05-11T13:13:08.842Z,15.95
2019-05-11T13:15:38.723Z,15.57
2019-05-11T13:18:08.503Z,15.73
2019-05-11T13:20:37.832Z,15.05
2019-05-11T13:23:07.990Z,15.52
2019-05-11T13:25:38.800Z,15.95
2019-05-11T13:28:08.565Z,15.93
2019-05-11T13:30:38.269Z,16.13
2019-05-11T13:33:08.603Z,16.04
2019-05-11T13:35:37.751Z,16.14
2019-05-11T13:38:08.728Z,14.81
2019-05-11T13:40:38.189Z,15.85
2019-05-11T13:43:08.307Z,15.01
2019-05-11T13:45:38.714Z,14.76
2019-05-11T13:48:08.554Z,14.81
2019-05-11T13:50:38.653Z,15.82
2019-05-11T13:53:07.866Z,15.11
2019-05-11T13:55:38.818Z,15.27
2019-05-11T13:58:08.339Z,15.13
2019-05-11T14:00:38.063Z,15.72
2019-05-11T14:03:08.593Z,16.04
2019-05-11T14:05:37.988Z,16.32
2019-05-11T14:08:08.096Z,15.96
2019-05-11T14:10:38.366Z,16.66
2019-05-11T14:13:08.903Z,16.55
2019-05-11T14:15:37.839Z,15.77
2019-05-11T14:18:09.384Z,15.78
2019-05-11T14:20:37.971Z,15.10
2019-05-11T14:23:07.690Z,15.58
2019-05-11T14:25:38.054Z,15.70
2019-05-11T14:28:08.904Z,15.41
2019-05-11T14:30:38.695Z,15.92
2019-05-11T14:33:08.774Z,15.90
2019-05-11T14:35:38.555Z,16.08
2019-05-11T14:38:08.110Z,16.66
2019-05-11T14:40:38.752Z,16.49
2019-05-11T14:43:08.376Z,16.23
2019-05-11T14:45:38.234Z,16.55
2019-05-11T14:48:22.601Z,15.77
2019-05-11T14:50:39.405Z,16.89
2019-05-11T14:53:08.734Z,17.08
2019-05-11T14:55:38.136Z,16.90
2019-05-11T14:58:08.349Z,16.78
2019-05-11T15:00:39.174Z,17.07
2019-05-11T15:03:08.830Z,16.87
2019-05-11T15:05:41.137Z,16.79
2019-05-11T15:08:08.760Z,16.59
2019-05-11T15:10:38.307Z,17.08
2019-05-11T15:13:08.086Z,16.60
2019-05-11T15:15:39.224Z,17.09
2019-05-11T15:18:08.516Z,16.58
2019-05-11T15:20:38.900Z,17.11
2019-05-11T15:23:08.801Z,16.68
2019-05-11T15:25:38.347Z,16.06
2019-05-11T15:28:08.950Z,15.67
2019-05-11T15:30:38.187Z,15.92
2019-05-11T15:33:07.850Z,16.18
2019-05-11T15:35:37.742Z,16.13
2019-05-11T15:38:08.692Z,16.01
2019-05-11T15:40:38.490Z,16.08
2019-05-11T15:43:08.785Z,16.19
2019-05-11T15:45:38.265Z,16.04
2019-05-11T15:48:08.408Z,16.50
2019-05-11T15:50:39.892Z,16.32
2019-05-11T15:53:08.764Z,16.21
2019-05-11T15:55:42.255Z,16.47
2019-05-11T15:58:09.322Z,16.45
2019-05-11T16:00:40.051Z,16.89
2019-05-11T16:03:08.674Z,16.74
2019-05-11T16:05:37.374Z,16.70
2019-05-11T16:08:08.394Z,16.44
2019-05-11T16:10:38.414Z,16.57
2019-05-11T16:13:09.237Z,16.79
2019-05-11T16:15:38.376Z,16.06
2019-05-11T16:18:08.322Z,15.94
2019-05-11T16:20:37.150Z,15.75
2019-05-11T16:23:05.805Z,15.98
2019-05-11T16:25:34.799Z,16.52
2019-05-11T16:28:03.444Z,16.58
2019-05-11T16:30:32.379Z,17.06
2019-05-11T16:33:01.363Z,16.25
2019-05-11T16:35:30.355Z,16.34
2019-05-11T16:37:59.416Z,15.53
2019-05-11T16:40:29.509Z,14.93
2019-05-11T16:42:58.868Z,14.53
2019-05-11T16:45:28.328Z,14.27
2019-05-11T16:47:58.870Z,14.89
2019-05-11T16:50:28.293Z,14.96
2019-05-11T16:52:58.477Z,15.50
2019-05-11T16:55:27.504Z,15.59
2019-05-11T16:57:58.620Z,16.02
2019-05-11T17:00:27.160Z,16.10
2019-05-11T17:02:57.695Z,15.77
2019-05-11T17:05:33.187Z,15.83
2019-05-11T17:07:58.716Z,16.04
2019-05-11T17:10:28.524Z,15.81
2019-05-11T17:12:58.167Z,15.87
2019-05-11T17:15:28.914Z,16.15
2019-05-11T17:17:58.777Z,15.88
2019-05-11T17:20:27.949Z,15.54
2019-05-11T17:22:56.598Z,15.74
2019-05-11T17:25:25.595Z,15.30
2019-05-11T17:27:54.315Z,15.44
2019-05-11T17:30:22.950Z,15.35
2019-05-11T17:32:51.579Z,15.30
2019-05-11T17:35:20.519Z,15.45
2019-05-11T17:37:49.212Z,15.55
2019-05-11T17:40:22.810Z,15.62
2019-05-11T17:42:48.944Z,15.17
2019-05-11T17:45:18.879Z,15.37
2019-05-11T17:47:48.066Z,15.11
2019-05-11T17:50:19.124Z,15.10
2019-05-11T17:52:48.011Z,14.83
2019-05-11T17:55:18.461Z,14.71
2019-05-11T17:57:49.578Z,14.59
2019-05-11T18:00:20.135Z,14.87
2019-05-11T18:02:49.242Z,14.85
2019-05-11T18:05:18.269Z,14.71
2019-05-11T18:07:47.494Z,14.52
2019-05-11T18:10:18.580Z,14.47
2019-05-11T18:12:48.592Z,14.32
2019-05-11T18:15:18.771Z,13.79
2019-05-11T18:17:48.648Z,13.83
2019-05-11T18:20:21.416Z,13.80
2019-05-11T18:22:49.117Z,13.37
2019-05-11T18:25:18.572Z,13.32
2019-05-11T18:27:48.420Z,13.30
2019-05-11T18:30:18.346Z,13.11
2019-05-11T18:32:49.088Z,12.84
2019-05-11T18:35:19.364Z,12.76
2019-05-11T18:37:48.191Z,12.67
2019-05-11T18:40:18.747Z,12.56
2019-05-11T18:42:48.717Z,12.30
2019-05-11T18:45:18.891Z,12.03
2019-05-11T18:47:49.011Z,11.94
2019-05-11T18:50:29.973Z,12.04
2019-05-11T18:52:49.357Z,11.79
2019-05-11T18:55:19.184Z,11.71
2019-05-11T18:57:49.031Z,11.70
2019-05-11T19:00:18.821Z,11.59
2019-05-11T19:02:49.503Z,11.37
2019-05-11T19:05:18.292Z,11.30
2019-05-11T19:07:48.171Z,11.23
2019-05-11T19:10:17.194Z,11.13
2019-05-11T19:12:48.424Z,11.14
2019-05-11T19:15:18.741Z,10.89
2019-05-11T19:17:48.993Z,10.89
2019-05-11T19:20:18.283Z,10.83
2019-05-11T19:22:47.194Z,10.72
2019-05-11T19:25:18.112Z,10.73
2019-05-11T19:27:50.353Z,10.75
2019-05-11T19:30:18.461Z,10.59
2019-05-11T19:32:48.701Z,10.56
2019-05-11T19:35:20.953Z,10.57
2019-05-11T19:37:48.892Z,10.55
2019-05-11T19:40:17.591Z,10.44
2019-05-11T19:42:58.743Z,10.40
2019-05-11T19:45:29.070Z,10.43
2019-05-11T19:47:57.940Z,10.15
2019-05-11T19:50:26.824Z,10.23
2019-05-11T19:52:57.776Z,10.28
2019-05-11T19:55:28.527Z,10.21
2019-05-11T19:57:57.593Z,10.25
2019-05-11T20:00:26.290Z,10.14
2019-05-11T20:02:54.928Z,10.14
2019-05-11T20:05:23.614Z,10.10
2019-05-11T20:07:52.484Z,10.21
2019-05-11T20:10:21.119Z,10.25
2019-05-11T20:12:49.832Z,10.37
2019-05-11T20:15:19.305Z,10.30
2019-05-11T20:17:49.146Z,10.04
2019-05-11T20:20:18.642Z,10.11
2019-05-11T20:22:48.537Z,10.02
2019-05-11T20:25:18.923Z,10.10
2019-05-11T20:27:48.866Z,9.97
2019-05-11T20:30:19.376Z,10.00
2019-05-11T20:32:49.157Z,9.98
2019-05-11T20:35:18.124Z,9.94
2019-05-11T20:37:47.025Z,10.02
2019-05-11T20:40:18.073Z,9.94
2019-05-11T20:42:49.151Z,9.85
2019-05-11T20:45:18.821Z,9.88
2019-05-11T20:47:48.672Z,9.85
2019-05-11T20:50:18.557Z,9.80
2019-05-11T20:52:48.278Z,9.81
2019-05-11T20:55:18.203Z,9.79
2019-05-11T20:57:48.705Z,9.79
2019-05-11T21:00:18.729Z,9.69
2019-05-11T21:02:48.963Z,9.66
2019-05-11T21:05:18.377Z,9.72
2019-05-11T21:07:47.771Z,9.80
2019-05-11T21:10:17.454Z,9.75
2019-05-11T21:12:46.449Z,9.84
2019-05-11T21:15:16.260Z,9.83
2019-05-11T21:17:44.928Z,9.84
2019-05-11T21:20:13.614Z,9.94
2019-05-11T21:22:42.857Z,10.15
2019-05-11T21:25:11.711Z,10.22
2019-05-11T21:27:41.032Z,10.24
2019-05-11T21:30:10.344Z,10.22
2019-05-11T21:32:39.167Z,10.18
2019-05-11T21:35:08.967Z,10.24
2019-05-11T21:37:38.889Z,10.26
2019-05-11T21:40:09.346Z,10.27
2019-05-11T21:42:39.182Z,10.23
2019-05-11T21:45:09.430Z,10.29
2019-05-11T21:47:39.810Z,10.27
2019-05-11T21:50:08.815Z,10.25
2019-05-11T21:52:38.620Z,10.33
2019-05-11T21:55:09.982Z,10.36
2019-05-11T21:57:38.829Z,10.36
2019-05-11T22:00:09.364Z,10.38
2019-05-11T22:02:39.042Z,10.24
2019-05-11T22:05:08.794Z,10.22
2019-05-11T22:07:38.706Z,10.16
2019-05-11T22:10:09.974Z,10.03
2019-05-11T22:12:39.503Z,10.08
2019-05-11T22:15:09.371Z,10.16
2019-05-11T22:17:39.593Z,10.11
2019-05-11T22:20:09.029Z,9.98
2019-05-11T22:22:39.030Z,9.97
2019-05-11T22:25:08.434Z,9.99
2019-05-11T22:27:38.903Z,9.93
2019-05-11T22:30:08.738Z,9.90
2019-05-11T22:32:38.771Z,9.88
2019-05-11T22:35:08.897Z,9.83
2019-05-11T22:37:38.563Z,9.87
2019-05-11T22:40:08.942Z,9.80
2019-05-11T22:42:37.872Z,9.72
2019-05-11T22:45:08.564Z,9.69
2019-05-11T22:47:39.287Z,9.74
2019-05-11T22:50:08.437Z,9.78
2019-05-11T22:52:39.716Z,9.82
2019-05-11T22:55:11.580Z,9.80
2019-05-11T22:57:38.704Z,9.73
2019-05-11T23:00:08.170Z,9.72
2019-05-11T23:02:38.049Z,9.79
2019-05-11T23:05:08.532Z,9.77
2019-05-11T23:07:41.093Z,9.64
2019-05-11T23:10:08.833Z,9.50
2019-05-11T23:12:38.753Z,9.55
2019-05-11T23:15:12.894Z,9.54
2019-05-11T23:17:42.148Z,9.59
2019-05-11T23:20:11.736Z,9.62
2019-05-11T23:22:57.792Z,9.58
2019-05-11T23:25:20.355Z,9.57
2019-05-11T23:27:49.230Z,9.54
2019-05-11T23:30:19.771Z,9.58
2019-05-11T23:32:49.168Z,9.46
2019-05-11T23:35:19.065Z,9.49
2019-05-11T23:37:49.424Z,9.46
2019-05-11T23:40:19.221Z,9.49
2019-05-11T23:42:48.988Z,9.37
2019-05-11T23:45:19.252Z,9.34
2019-05-11T23:47:49.027Z,9.39
2019-05-11T23:50:19.120Z,9.33
2019-05-11T23:52:50.237Z,9.27
2019-05-11T23:55:19.343Z,9.28
2019-05-11T23:57:48.848Z,9.23
